sensor_id;sensor_type;location;lat;lon;timestamp;pressure;altitude;pressure_sealevel;temperature;humidity
58967;BME280;44744;51.894;5.080;2023-08-01T00:00:11;99999.73;;;16.14;99.87
58967;BME280;44744;51.894;5.080;2023-08-01T00:01:11;100002.44;;;16.13;99.93
58967;BME280;44744;51.894;5.080;2023-08-01T00:02:12;100002.52;;;16.13;99.90
58967;BME280;44744;51.894;5.080;2023-08-01T00:03:13;100004.27;;;16.13;99.69
58967;BME280;44744;51.894;5.080;2023-08-01T00:04:14;99999.70;;;16.12;99.71
58967;BME280;44744;51.894;5.080;2023-08-01T00:05:15;100004.91;;;16.12;99.89
58967;BME280;44744;51.894;5.080;2023-08-01T00:06:19;100000.63;;;16.12;99.82
58967;BME280;44744;51.894;5.080;2023-08-01T00:07:21;99999.63;;;16.11;99.85
58967;BME280;44744;51.894;5.080;2023-08-01T00:08:21;99997.92;;;16.10;99.87
58967;BME280;44744;51.894;5.080;2023-08-01T00:09:22;99995.23;;;16.10;99.69
58967;BME280;44744;51.894;5.080;2023-08-01T00:10:22;99987.30;;;16.09;99.83
58967;BME280;44744;51.894;5.080;2023-08-01T00:11:22;99993.75;;;16.09;99.89
58967;BME280;44744;51.894;5.080;2023-08-01T00:12:24;99986.56;;;16.08;99.94
58967;BME280;44744;51.894;5.080;2023-08-01T00:13:24;99990.55;;;16.07;99.98
58967;BME280;44744;51.894;5.080;2023-08-01T00:14:24;99987.45;;;16.06;99.75
58967;BME280;44744;51.894;5.080;2023-08-01T00:15:25;99984.66;;;16.05;99.96
58967;BME280;44744;51.894;5.080;2023-08-01T00:16:27;99982.21;;;16.04;99.84
58967;BME280;44744;51.894;5.080;2023-08-01T00:17:28;99979.95;;;16.03;100.00
58967;BME280;44744;51.894;5.080;2023-08-01T00:18:30;99978.36;;;16.03;99.91
58967;BME280;44744;51.894;5.080;2023-08-01T00:19:32;99977.97;;;16.02;99.98
58967;BME280;44744;51.894;5.080;2023-08-01T00:20:32;99975.12;;;16.02;99.94
58967;BME280;44744;51.894;5.080;2023-08-01T00:21:32;99971.14;;;16.00;99.99
58967;BME280;44744;51.894;5.080;2023-08-01T00:22:35;99972.73;;;16.00;99.97
58967;BME280;44744;51.894;5.080;2023-08-01T00:23:35;99968.25;;;15.99;100.00
58967;BME280;44744;51.894;5.080;2023-08-01T00:24:36;99973.98;;;15.99;99.99
58967;BME280;44744;51.894;5.080;2023-08-01T00:25:37;99972.73;;;15.99;99.98
58967;BME280;44744;51.894;5.080;2023-08-01T00:26:37;99975.83;;;15.98;100.00
58967;BME280;44744;51.894;5.080;2023-08-01T00:27:37;99970.73;;;15.97;100.00
58967;BME280;44744;51.894;5.080;2023-08-01T00:28:37;99974.52;;;15.97;100.00
58967;BME280;44744;51.894;5.080;2023-08-01T00:29:37;99972.02;;;15.97;100.00
58967;BME280;44744;51.894;5.080;2023-08-01T00:30:37;99965.68;;;15.96;100.00
58967;BME280;44744;51.894;5.080;2023-08-01T00:31:38;99962.17;;;15.95;100.00
58967;BME280;44744;51.894;5.080;2023-08-01T00:32:39;99957.58;;;15.95;100.00
58967;BME280;44744;51.894;5.080;2023-08-01T00:33:40;99960.77;;;15.95;100.00
58967;BME280;44744;51.894;5.080;2023-08-01T00:34:41;99957.89;;;15.95;100.00
58967;BME280;44744;51.894;5.080;2023-08-01T00:35:41;99958.76;;;15.96;100.00
58967;BME280;44744;51.894;5.080;2023-08-01T00:36:41;99956.41;;;15.96;100.00
58967;BME280;44744;51.894;5.080;2023-08-01T00:37:41;99952.53;;;15.95;100.00
58967;BME280;44744;51.894;5.080;2023-08-01T00:38:42;99947.58;;;15.95;100.00
58967;BME280;44744;51.894;5.080;2023-08-01T00:39:43;99947.95;;;15.95;100.00
58967;BME280;44744;51.894;5.080;2023-08-01T00:40:44;99945.90;;;15.94;100.00
58967;BME280;44744;51.894;5.080;2023-08-01T00:41:45;99943.82;;;15.93;99.97
58967;BME280;44744;51.894;5.080;2023-08-01T00:42:46;99941.91;;;15.93;99.99
58967;BME280;44744;51.894;5.080;2023-08-01T00:43:46;99940.24;;;15.91;99.91
58967;BME280;44744;51.894;5.080;2023-08-01T00:44:46;99938.89;;;15.91;100.00
58967;BME280;44744;51.894;5.080;2023-08-01T00:45:47;99936.66;;;15.90;100.00
58967;BME280;44744;51.894;5.080;2023-08-01T00:46:47;99939.56;;;15.89;100.00
58967;BME280;44744;51.894;5.080;2023-08-01T00:47:48;99940.80;;;15.89;99.98
58967;BME280;44744;51.894;5.080;2023-08-01T00:48:48;99940.48;;;15.89;100.00
58967;BME280;44744;51.894;5.080;2023-08-01T00:49:49;99936.24;;;15.88;100.00
58967;BME280;44744;51.894;5.080;2023-08-01T00:50:50;99940.77;;;15.87;100.00
58967;BME280;44744;51.894;5.080;2023-08-01T00:51:51;99940.99;;;15.87;99.99
58967;BME280;44744;51.894;5.080;2023-08-01T00:52:51;99934.45;;;15.86;99.86
58967;BME280;44744;51.894;5.080;2023-08-01T00:53:52;99931.20;;;15.85;99.85
58967;BME280;44744;51.894;5.080;2023-08-01T00:54:53;99932.41;;;15.83;99.90
58967;BME280;44744;51.894;5.080;2023-08-01T00:55:54;99933.23;;;15.82;99.89
58967;BME280;44744;51.894;5.080;2023-08-01T00:56:55;99932.98;;;15.81;99.90
58967;BME280;44744;51.894;5.080;2023-08-01T00:58:00;99931.96;;;15.81;99.88
58967;BME280;44744;51.894;5.080;2023-08-01T00:59:00;99933.92;;;15.80;100.00
58967;BME280;44744;51.894;5.080;2023-08-01T01:00:00;99931.63;;;15.80;100.00
58967;BME280;44744;51.894;5.080;2023-08-01T01:01:03;99930.20;;;15.80;99.96
58967;BME280;44744;51.894;5.080;2023-08-01T01:02:03;99931.85;;;15.80;99.90
58967;BME280;44744;51.894;5.080;2023-08-01T01:03:04;99933.11;;;15.80;99.87
58967;BME280;44744;51.894;5.080;2023-08-01T01:04:04;99931.77;;;15.79;99.86
58967;BME280;44744;51.894;5.080;2023-08-01T01:05:04;99930.20;;;15.78;99.92
58967;BME280;44744;51.894;5.080;2023-08-01T01:06:16;99932.52;;;15.78;99.84
58967;BME280;44744;51.894;5.080;2023-08-01T01:07:37;99928.23;;;15.78;99.94
58967;BME280;44744;51.894;5.080;2023-08-01T01:08:42;99928.66;;;15.77;99.94
58967;BME280;44744;51.894;5.080;2023-08-01T01:09:42;99932.25;;;15.77;99.80
58967;BME280;44744;51.894;5.080;2023-08-01T01:10:46;99928.02;;;15.77;99.85
58967;BME280;44744;51.894;5.080;2023-08-01T01:11:46;99933.06;;;15.76;99.84
58967;BME280;44744;51.894;5.080;2023-08-01T01:12:47;99928.77;;;15.76;99.91
58967;BME280;44744;51.894;5.080;2023-08-01T01:13:47;99930.18;;;15.76;99.96
58967;BME280;44744;51.894;5.080;2023-08-01T01:14:52;99931.88;;;15.75;99.85
58967;BME280;44744;51.894;5.080;2023-08-01T01:15:52;99930.36;;;15.74;99.87
58967;BME280;44744;51.894;5.080;2023-08-01T01:16:52;99929.66;;;15.74;99.93
58967;BME280;44744;51.894;5.080;2023-08-01T01:17:52;99930.61;;;15.74;99.80
58967;BME280;44744;51.894;5.080;2023-08-01T01:18:53;99934.95;;;15.73;99.89
58967;BME280;44744;51.894;5.080;2023-08-01T01:19:53;99937.77;;;15.73;99.85
58967;BME280;44744;51.894;5.080;2023-08-01T01:20:53;99937.10;;;15.73;99.88
58967;BME280;44744;51.894;5.080;2023-08-01T01:21:56;99937.50;;;15.72;99.88
58967;BME280;44744;51.894;5.080;2023-08-01T01:22:58;99937.60;;;15.71;99.79
58967;BME280;44744;51.894;5.080;2023-08-01T01:23:58;99937.67;;;15.70;99.86
58967;BME280;44744;51.894;5.080;2023-08-01T01:24:59;99941.47;;;15.70;99.79
58967;BME280;44744;51.894;5.080;2023-08-01T01:26:02;99937.73;;;15.69;99.85
58967;BME280;44744;51.894;5.080;2023-08-01T01:27:03;99942.39;;;15.69;99.84
58967;BME280;44744;51.894;5.080;2023-08-01T01:28:04;99940.70;;;15.68;99.80
58967;BME280;44744;51.894;5.080;2023-08-01T01:29:06;99940.69;;;15.68;99.69
58967;BME280;44744;51.894;5.080;2023-08-01T01:30:07;99942.19;;;15.67;99.93
58967;BME280;44744;51.894;5.080;2023-08-01T01:31:07;99938.48;;;15.67;99.64
58967;BME280;44744;51.894;5.080;2023-08-01T01:32:09;99941.23;;;15.66;99.78
58967;BME280;44744;51.894;5.080;2023-08-01T01:33:12;99944.08;;;15.66;99.73
58967;BME280;44744;51.894;5.080;2023-08-01T01:34:17;99942.45;;;15.65;99.78
58967;BME280;44744;51.894;5.080;2023-08-01T01:35:19;99942.95;;;15.65;99.81
58967;BME280;44744;51.894;5.080;2023-08-01T01:36:19;99939.32;;;15.64;99.74
58967;BME280;44744;51.894;5.080;2023-08-01T01:37:20;99942.39;;;15.63;99.78
58967;BME280;44744;51.894;5.080;2023-08-01T01:38:20;99940.92;;;15.64;99.77
58967;BME280;44744;51.894;5.080;2023-08-01T01:39:20;99940.05;;;15.64;99.77
58967;BME280;44744;51.894;5.080;2023-08-01T01:40:23;99940.79;;;15.63;99.74
58967;BME280;44744;51.894;5.080;2023-08-01T01:41:24;99939.37;;;15.63;99.72
58967;BME280;44744;51.894;5.080;2023-08-01T01:42:24;99938.87;;;15.63;99.89
58967;BME280;44744;51.894;5.080;2023-08-01T01:43:24;99937.96;;;15.63;99.85
58967;BME280;44744;51.894;5.080;2023-08-01T01:44:24;99935.33;;;15.63;99.90
58967;BME280;44744;51.894;5.080;2023-08-01T01:45:27;99935.86;;;15.62;99.78
58967;BME280;44744;51.894;5.080;2023-08-01T01:46:29;99936.00;;;15.63;99.65
58967;BME280;44744;51.894;5.080;2023-08-01T01:47:29;99938.16;;;15.63;99.76
58967;BME280;44744;51.894;5.080;2023-08-01T01:48:30;99934.48;;;15.62;99.86
58967;BME280;44744;51.894;5.080;2023-08-01T01:49:30;99933.20;;;15.62;99.81
58967;BME280;44744;51.894;5.080;2023-08-01T01:50:30;99932.46;;;15.63;99.74
58967;BME280;44744;51.894;5.080;2023-08-01T01:51:30;99932.45;;;15.63;99.86
58967;BME280;44744;51.894;5.080;2023-08-01T01:52:33;99932.84;;;15.62;99.75
58967;BME280;44744;51.894;5.080;2023-08-01T01:53:33;99932.52;;;15.62;99.76
58967;BME280;44744;51.894;5.080;2023-08-01T01:54:34;99929.75;;;15.61;99.76
58967;BME280;44744;51.894;5.080;2023-08-01T01:55:34;99930.25;;;15.61;99.98
58967;BME280;44744;51.894;5.080;2023-08-01T01:56:36;99931.14;;;15.62;99.83
58967;BME280;44744;51.894;5.080;2023-08-01T01:57:36;99929.84;;;15.62;99.77
58967;BME280;44744;51.894;5.080;2023-08-01T01:58:37;99931.35;;;15.61;99.79
58967;BME280;44744;51.894;5.080;2023-08-01T01:59:38;99929.89;;;15.62;99.78
58967;BME280;44744;51.894;5.080;2023-08-01T02:00:38;99927.92;;;15.62;99.81
58967;BME280;44744;51.894;5.080;2023-08-01T02:01:39;99927.55;;;15.62;99.68
58967;BME280;44744;51.894;5.080;2023-08-01T02:02:40;99925.98;;;15.62;99.71
58967;BME280;44744;51.894;5.080;2023-08-01T02:03:40;99927.42;;;15.61;99.83
58967;BME280;44744;51.894;5.080;2023-08-01T02:04:40;99927.73;;;15.62;99.89
58967;BME280;44744;51.894;5.080;2023-08-01T02:05:41;99924.69;;;15.62;99.90
58967;BME280;44744;51.894;5.080;2023-08-01T02:06:41;99924.98;;;15.63;99.81
58967;BME280;44744;51.894;5.080;2023-08-01T02:07:42;99923.59;;;15.62;99.81
58967;BME280;44744;51.894;5.080;2023-08-01T02:08:42;99926.27;;;15.62;99.84
58967;BME280;44744;51.894;5.080;2023-08-01T02:09:45;99925.20;;;15.62;99.72
58967;BME280;44744;51.894;5.080;2023-08-01T02:10:47;99923.55;;;15.63;99.92
58967;BME280;44744;51.894;5.080;2023-08-01T02:11:47;99926.23;;;15.63;99.94
58967;BME280;44744;51.894;5.080;2023-08-01T02:12:47;99923.52;;;15.63;99.75
58967;BME280;44744;51.894;5.080;2023-08-01T02:13:48;99923.85;;;15.63;99.87
58967;BME280;44744;51.894;5.080;2023-08-01T02:14:48;99921.73;;;15.63;99.87
58967;BME280;44744;51.894;5.080;2023-08-01T02:15:54;99922.27;;;15.63;99.88
58967;BME280;44744;51.894;5.080;2023-08-01T02:16:55;99924.95;;;15.63;99.81
58967;BME280;44744;51.894;5.080;2023-08-01T02:17:55;99921.23;;;15.63;99.86
58967;BME280;44744;51.894;5.080;2023-08-01T02:19:04;99926.73;;;15.63;99.80
58967;BME280;44744;51.894;5.080;2023-08-01T02:20:05;99923.70;;;15.63;99.87
58967;BME280;44744;51.894;5.080;2023-08-01T02:21:05;99922.67;;;15.63;99.91
58967;BME280;44744;51.894;5.080;2023-08-01T02:22:06;99924.36;;;15.64;99.77
58967;BME280;44744;51.894;5.080;2023-08-01T02:23:06;99921.69;;;15.64;99.90
58967;BME280;44744;51.894;5.080;2023-08-01T02:24:07;99924.58;;;15.63;99.88
58967;BME280;44744;51.894;5.080;2023-08-01T02:25:08;99926.55;;;15.63;99.93
58967;BME280;44744;51.894;5.080;2023-08-01T02:26:09;99925.11;;;15.63;99.91
58967;BME280;44744;51.894;5.080;2023-08-01T02:27:09;99920.33;;;15.63;99.92
58967;BME280;44744;51.894;5.080;2023-08-01T02:28:09;99919.65;;;15.62;99.84
58967;BME280;44744;51.894;5.080;2023-08-01T02:29:10;99915.06;;;15.62;99.95
58967;BME280;44744;51.894;5.080;2023-08-01T02:30:10;99913.20;;;15.61;99.98
58967;BME280;44744;51.894;5.080;2023-08-01T02:31:10;99910.02;;;15.61;99.94
58967;BME280;44744;51.894;5.080;2023-08-01T02:32:11;99914.31;;;15.61;99.98
58967;BME280;44744;51.894;5.080;2023-08-01T02:33:11;99912.00;;;15.60;99.82
58967;BME280;44744;51.894;5.080;2023-08-01T02:34:14;99913.04;;;15.61;99.94
58967;BME280;44744;51.894;5.080;2023-08-01T02:35:14;99911.23;;;15.61;99.84
58967;BME280;44744;51.894;5.080;2023-08-01T02:36:14;99912.00;;;15.60;99.82
58967;BME280;44744;51.894;5.080;2023-08-01T02:37:16;99909.80;;;15.61;99.80
58967;BME280;44744;51.894;5.080;2023-08-01T02:38:16;99906.27;;;15.61;99.87
58967;BME280;44744;51.894;5.080;2023-08-01T02:39:19;99913.17;;;15.61;99.84
58967;BME280;44744;51.894;5.080;2023-08-01T02:40:20;99911.04;;;15.61;99.80
58967;BME280;44744;51.894;5.080;2023-08-01T02:41:21;99911.77;;;15.61;99.89
58967;BME280;44744;51.894;5.080;2023-08-01T02:42:21;99908.92;;;15.61;99.82
58967;BME280;44744;51.894;5.080;2023-08-01T02:43:21;99905.89;;;15.61;99.85
58967;BME280;44744;51.894;5.080;2023-08-01T02:44:22;99906.05;;;15.61;99.88
58967;BME280;44744;51.894;5.080;2023-08-01T02:45:22;99907.84;;;15.61;99.75
58967;BME280;44744;51.894;5.080;2023-08-01T02:46:22;99909.80;;;15.61;99.91
58967;BME280;44744;51.894;5.080;2023-08-01T02:47:22;99908.51;;;15.62;99.91
58967;BME280;44744;51.894;5.080;2023-08-01T02:48:22;99911.40;;;15.61;99.92
58967;BME280;44744;51.894;5.080;2023-08-01T02:49:24;99908.17;;;15.61;99.91
58967;BME280;44744;51.894;5.080;2023-08-01T02:50:24;99910.09;;;15.62;99.80
58967;BME280;44744;51.894;5.080;2023-08-01T02:51:25;99915.11;;;15.61;99.91
58967;BME280;44744;51.894;5.080;2023-08-01T02:52:26;99918.44;;;15.62;99.97
58967;BME280;44744;51.894;5.080;2023-08-01T02:53:27;99915.41;;;15.62;99.92
58967;BME280;44744;51.894;5.080;2023-08-01T02:54:27;99918.61;;;15.62;99.81
58967;BME280;44744;51.894;5.080;2023-08-01T02:55:27;99919.14;;;15.62;99.89
58967;BME280;44744;51.894;5.080;2023-08-01T02:56:27;99918.10;;;15.62;99.93
58967;BME280;44744;51.894;5.080;2023-08-01T02:57:29;99920.50;;;15.61;99.85
58967;BME280;44744;51.894;5.080;2023-08-01T02:58:30;99920.66;;;15.61;99.80
58967;BME280;44744;51.894;5.080;2023-08-01T02:59:32;99920.88;;;15.61;99.90
58967;BME280;44744;51.894;5.080;2023-08-01T03:00:37;99919.69;;;15.60;99.87
58967;BME280;44744;51.894;5.080;2023-08-01T03:01:37;99920.04;;;15.60;99.89
58967;BME280;44744;51.894;5.080;2023-08-01T03:02:38;99920.35;;;15.61;99.91
58967;BME280;44744;51.894;5.080;2023-08-01T03:03:38;99920.58;;;15.60;99.84
58967;BME280;44744;51.894;5.080;2023-08-01T03:04:39;99921.29;;;15.60;99.87
58967;BME280;44744;51.894;5.080;2023-08-01T03:05:40;99921.37;;;15.59;99.89
58967;BME280;44744;51.894;5.080;2023-08-01T03:06:41;99925.23;;;15.60;99.95
58967;BME280;44744;51.894;5.080;2023-08-01T03:07:42;99922.19;;;15.60;99.95
58967;BME280;44744;51.894;5.080;2023-08-01T03:08:42;99917.38;;;15.60;99.92
58967;BME280;44744;51.894;5.080;2023-08-01T03:09:43;99921.86;;;15.60;99.92
58967;BME280;44744;51.894;5.080;2023-08-01T03:10:45;99922.89;;;15.60;99.91
58967;BME280;44744;51.894;5.080;2023-08-01T03:11:45;99923.59;;;15.60;99.91
58967;BME280;44744;51.894;5.080;2023-08-01T03:12:46;99925.05;;;15.60;99.90
58967;BME280;44744;51.894;5.080;2023-08-01T03:13:46;99924.19;;;15.60;99.91
58967;BME280;44744;51.894;5.080;2023-08-01T03:14:46;99926.11;;;15.60;99.86
58967;BME280;44744;51.894;5.080;2023-08-01T03:15:46;99926.64;;;15.60;99.77
58967;BME280;44744;51.894;5.080;2023-08-01T03:16:47;99925.61;;;15.60;99.88
58967;BME280;44744;51.894;5.080;2023-08-01T03:17:48;99928.45;;;15.60;99.85
58967;BME280;44744;51.894;5.080;2023-08-01T03:18:48;99926.37;;;15.59;99.79
58967;BME280;44744;51.894;5.080;2023-08-01T03:19:48;99929.27;;;15.59;99.80
58967;BME280;44744;51.894;5.080;2023-08-01T03:20:48;99925.04;;;15.58;99.71
58967;BME280;44744;51.894;5.080;2023-08-01T03:21:51;99920.96;;;15.58;99.69
58967;BME280;44744;51.894;5.080;2023-08-01T03:22:51;99925.50;;;15.57;99.60
58967;BME280;44744;51.894;5.080;2023-08-01T03:23:51;99921.23;;;15.57;99.58
58967;BME280;44744;51.894;5.080;2023-08-01T03:24:53;99921.77;;;15.57;99.53
58967;BME280;44744;51.894;5.080;2023-08-01T03:26:05;99919.65;;;15.57;99.62
58967;BME280;44744;51.894;5.080;2023-08-01T03:27:05;99918.23;;;15.57;99.60
58967;BME280;44744;51.894;5.080;2023-08-01T03:28:05;99922.28;;;15.57;99.45
58967;BME280;44744;51.894;5.080;2023-08-01T03:29:06;99924.98;;;15.57;99.56
58967;BME280;44744;51.894;5.080;2023-08-01T03:30:06;99920.54;;;15.57;99.61
58967;BME280;44744;51.894;5.080;2023-08-01T03:31:07;99921.51;;;15.56;99.66
58967;BME280;44744;51.894;5.080;2023-08-01T03:32:07;99921.51;;;15.56;99.66
58967;BME280;44744;51.894;5.080;2023-08-01T03:33:07;99923.91;;;15.55;99.47
58967;BME280;44744;51.894;5.080;2023-08-01T03:34:14;99920.83;;;15.56;99.68
58967;BME280;44744;51.894;5.080;2023-08-01T03:35:15;99922.23;;;15.53;99.60
58967;BME280;44744;51.894;5.080;2023-08-01T03:36:15;99921.83;;;15.55;99.51
58967;BME280;44744;51.894;5.080;2023-08-01T03:37:16;99924.51;;;15.54;99.55
58967;BME280;44744;51.894;5.080;2023-08-01T03:38:16;99926.93;;;15.53;99.49
58967;BME280;44744;51.894;5.080;2023-08-01T03:39:17;99923.80;;;15.52;99.50
58967;BME280;44744;51.894;5.080;2023-08-01T03:40:17;99924.38;;;15.52;99.53
58967;BME280;44744;51.894;5.080;2023-08-01T03:41:18;99928.92;;;15.51;99.58
58967;BME280;44744;51.894;5.080;2023-08-01T03:42:18;99926.11;;;15.50;99.63
58967;BME280;44744;51.894;5.080;2023-08-01T03:43:19;99929.20;;;15.50;99.63
58967;BME280;44744;51.894;5.080;2023-08-01T03:44:19;99926.20;;;15.49;99.47
58967;BME280;44744;51.894;5.080;2023-08-01T03:45:19;99930.02;;;15.48;99.57
58967;BME280;44744;51.894;5.080;2023-08-01T03:46:22;99928.48;;;15.47;99.55
58967;BME280;44744;51.894;5.080;2023-08-01T03:47:22;99932.63;;;15.47;99.44
58967;BME280;44744;51.894;5.080;2023-08-01T03:48:22;99935.83;;;15.47;99.43
58967;BME280;44744;51.894;5.080;2023-08-01T03:49:22;99933.39;;;15.47;99.52
58967;BME280;44744;51.894;5.080;2023-08-01T03:50:23;99932.72;;;15.46;99.41
58967;BME280;44744;51.894;5.080;2023-08-01T03:51:23;99932.89;;;15.46;99.57
58967;BME280;44744;51.894;5.080;2023-08-01T03:52:24;99933.25;;;15.46;99.45
58967;BME280;44744;51.894;5.080;2023-08-01T03:53:24;99929.73;;;15.46;99.42
58967;BME280;44744;51.894;5.080;2023-08-01T03:54:24;99930.75;;;15.46;99.35
58967;BME280;44744;51.894;5.080;2023-08-01T03:55:24;99928.30;;;15.46;99.48
58967;BME280;44744;51.894;5.080;2023-08-01T03:56:24;99930.73;;;15.47;99.43
58967;BME280;44744;51.894;5.080;2023-08-01T03:57:24;99933.90;;;15.47;99.41
58967;BME280;44744;51.894;5.080;2023-08-01T03:58:26;99931.63;;;15.46;99.52
58967;BME280;44744;51.894;5.080;2023-08-01T03:59:27;99931.85;;;15.46;99.45
58967;BME280;44744;51.894;5.080;2023-08-01T04:00:27;99935.23;;;15.46;99.54
58967;BME280;44744;51.894;5.080;2023-08-01T04:01:28;99936.70;;;15.45;99.65
58967;BME280;44744;51.894;5.080;2023-08-01T04:02:28;99939.27;;;15.47;99.64
58967;BME280;44744;51.894;5.080;2023-08-01T04:03:28;99935.27;;;15.45;99.66
58967;BME280;44744;51.894;5.080;2023-08-01T04:04:29;99937.11;;;15.45;99.61
58967;BME280;44744;51.894;5.080;2023-08-01T04:05:29;99931.05;;;15.45;99.70
58967;BME280;44744;51.894;5.080;2023-08-01T04:06:29;99929.79;;;15.45;99.70
58967;BME280;44744;51.894;5.080;2023-08-01T04:07:29;99930.66;;;15.45;99.68
58967;BME280;44744;51.894;5.080;2023-08-01T04:08:30;99931.50;;;15.46;99.69
58967;BME280;44744;51.894;5.080;2023-08-01T04:09:30;99931.92;;;15.45;99.72
58967;BME280;44744;51.894;5.080;2023-08-01T04:10:30;99934.92;;;15.45;99.73
58967;BME280;44744;51.894;5.080;2023-08-01T04:11:31;99937.13;;;15.45;99.79
58967;BME280;44744;51.894;5.080;2023-08-01T04:12:32;99935.27;;;15.46;99.74
58967;BME280;44744;51.894;5.080;2023-08-01T04:13:32;99932.45;;;15.45;99.90
58967;BME280;44744;51.894;5.080;2023-08-01T04:14:35;99936.39;;;15.45;99.87
58967;BME280;44744;51.894;5.080;2023-08-01T04:15:41;99934.59;;;15.45;99.76
58967;BME280;44744;51.894;5.080;2023-08-01T04:16:41;99933.52;;;15.45;99.83
58967;BME280;44744;51.894;5.080;2023-08-01T04:17:42;99937.63;;;15.45;99.79
58967;BME280;44744;51.894;5.080;2023-08-01T04:18:42;99935.64;;;15.45;99.72
58967;BME280;44744;51.894;5.080;2023-08-01T04:19:42;99936.90;;;15.45;99.76
58967;BME280;44744;51.894;5.080;2023-08-01T04:20:44;99938.45;;;15.46;99.79
58967;BME280;44744;51.894;5.080;2023-08-01T04:21:45;99938.48;;;15.45;99.73
58967;BME280;44744;51.894;5.080;2023-08-01T04:22:45;99937.09;;;15.45;99.72
58967;BME280;44744;51.894;5.080;2023-08-01T04:23:46;99939.23;;;15.45;99.71
58967;BME280;44744;51.894;5.080;2023-08-01T04:24:46;99936.77;;;15.45;99.86
58967;BME280;44744;51.894;5.080;2023-08-01T04:25:46;99934.62;;;15.45;99.66
58967;BME280;44744;51.894;5.080;2023-08-01T04:26:47;99935.15;;;15.45;99.80
58967;BME280;44744;51.894;5.080;2023-08-01T04:27:48;99933.66;;;15.45;99.80
58967;BME280;44744;51.894;5.080;2023-08-01T04:28:48;99934.96;;;15.45;99.75
58967;BME280;44744;51.894;5.080;2023-08-01T04:29:49;99933.02;;;15.45;99.73
58967;BME280;44744;51.894;5.080;2023-08-01T04:30:49;99935.83;;;15.45;99.75
58967;BME280;44744;51.894;5.080;2023-08-01T04:31:50;99935.64;;;15.45;99.70
58967;BME280;44744;51.894;5.080;2023-08-01T04:32:51;99933.71;;;15.45;99.76
58967;BME280;44744;51.894;5.080;2023-08-01T04:33:51;99933.71;;;15.45;99.80
58967;BME280;44744;51.894;5.080;2023-08-01T04:34:51;99931.81;;;15.44;99.76
58967;BME280;44744;51.894;5.080;2023-08-01T04:35:53;99929.54;;;15.44;99.75
58967;BME280;44744;51.894;5.080;2023-08-01T04:36:55;99929.67;;;15.44;99.79
58967;BME280;44744;51.894;5.080;2023-08-01T04:37:58;99928.10;;;15.44;99.83
58967;BME280;44744;51.894;5.080;2023-08-01T04:38:58;99929.41;;;15.43;99.88
58967;BME280;44744;51.894;5.080;2023-08-01T04:39:58;99926.88;;;15.43;99.86
58967;BME280;44744;51.894;5.080;2023-08-01T04:40:58;99925.48;;;15.43;99.84
58967;BME280;44744;51.894;5.080;2023-08-01T04:42:00;99923.37;;;15.43;99.89
58967;BME280;44744;51.894;5.080;2023-08-01T04:43:02;99923.67;;;15.43;99.81
58967;BME280;44744;51.894;5.080;2023-08-01T04:44:04;99919.91;;;15.44;99.86
58967;BME280;44744;51.894;5.080;2023-08-01T04:45:05;99924.22;;;15.44;99.75
58967;BME280;44744;51.894;5.080;2023-08-01T04:46:06;99926.73;;;15.44;99.71
58967;BME280;44744;51.894;5.080;2023-08-01T04:47:07;99922.75;;;15.44;99.78
58967;BME280;44744;51.894;5.080;2023-08-01T04:48:13;99921.65;;;15.44;99.89
58967;BME280;44744;51.894;5.080;2023-08-01T04:49:16;99919.58;;;15.44;99.84
58967;BME280;44744;51.894;5.080;2023-08-01T04:50:16;99920.02;;;15.45;99.93
58967;BME280;44744;51.894;5.080;2023-08-01T04:51:16;99917.88;;;15.45;99.92
58967;BME280;44744;51.894;5.080;2023-08-01T04:52:16;99917.29;;;15.45;99.89
58967;BME280;44744;51.894;5.080;2023-08-01T04:53:16;99917.27;;;15.46;99.89
58967;BME280;44744;51.894;5.080;2023-08-01T04:54:16;99922.57;;;15.46;99.96
58967;BME280;44744;51.894;5.080;2023-08-01T04:55:17;99921.46;;;15.46;99.88
58967;BME280;44744;51.894;5.080;2023-08-01T04:56:18;99920.35;;;15.47;99.96
58967;BME280;44744;51.894;5.080;2023-08-01T04:57:18;99922.05;;;15.48;99.91
58967;BME280;44744;51.894;5.080;2023-08-01T04:58:21;99925.13;;;15.47;99.98
58967;BME280;44744;51.894;5.080;2023-08-01T04:59:21;99929.42;;;15.47;99.87
58967;BME280;44744;51.894;5.080;2023-08-01T05:00:21;99929.42;;;15.47;99.98
58967;BME280;44744;51.894;5.080;2023-08-01T05:01:21;99933.70;;;15.47;99.95
58967;BME280;44744;51.894;5.080;2023-08-01T05:02:22;99932.18;;;15.46;99.99
58967;BME280;44744;51.894;5.080;2023-08-01T05:03:22;99932.17;;;15.46;100.00
58967;BME280;44744;51.894;5.080;2023-08-01T05:04:22;99932.19;;;15.46;100.00
58967;BME280;44744;51.894;5.080;2023-08-01T05:05:26;99934.52;;;15.46;100.00
58967;BME280;44744;51.894;5.080;2023-08-01T05:06:26;99934.14;;;15.46;100.00
58967;BME280;44744;51.894;5.080;2023-08-01T05:07:28;99937.19;;;15.46;100.00
58967;BME280;44744;51.894;5.080;2023-08-01T05:08:28;99934.27;;;15.47;100.00
58967;BME280;44744;51.894;5.080;2023-08-01T05:09:29;99931.92;;;15.47;100.00
58967;BME280;44744;51.894;5.080;2023-08-01T05:10:29;99932.80;;;15.47;100.00
58967;BME280;44744;51.894;5.080;2023-08-01T05:11:29;99931.53;;;15.47;100.00
58967;BME280;44744;51.894;5.080;2023-08-01T05:12:29;99934.20;;;15.47;100.00
58967;BME280;44744;51.894;5.080;2023-08-01T05:13:29;99932.48;;;15.47;100.00
58967;BME280;44744;51.894;5.080;2023-08-01T05:14:29;99931.39;;;15.47;100.00
58967;BME280;44744;51.894;5.080;2023-08-01T05:15:30;99933.47;;;15.47;100.00
58967;BME280;44744;51.894;5.080;2023-08-01T05:16:30;99932.77;;;15.47;100.00
58967;BME280;44744;51.894;5.080;2023-08-01T05:17:32;99929.36;;;15.48;100.00
58967;BME280;44744;51.894;5.080;2023-08-01T05:18:33;99930.03;;;15.48;100.00
58967;BME280;44744;51.894;5.080;2023-08-01T05:19:33;99932.34;;;15.48;100.00
58967;BME280;44744;51.894;5.080;2023-08-01T05:20:35;99934.59;;;15.49;100.00
58967;BME280;44744;51.894;5.080;2023-08-01T05:21:35;99930.98;;;15.50;100.00